Time;durP1;ratioP1;P1;durP2;ratioP2;P2;SDS_P1;SDS_P2;PMS_P1;PMS_P2;Temp;Humidity;BMP_temperature;BMP_pressure;BME280_temperature;BME280_humidity;BME280_pressure;Samples;Min_cycle;Max_cycle;Signal;HPM_P1;HPM_P2
2022/08/15 00:00:08;;;;;;;12.30;9.40;;;24.80;94.80;;;;;;3057922;19;20021;-73
2022/08/15 00:01:16;;;;;;;11.10;8.77;;;24.50;94.60;;;;;;3057799;19;20011;-73
2022/08/15 00:02:18;;;;;;;11.05;8.82;;;24.70;94.80;;;;;;3057813;19;20014;-73
2022/08/15 00:03:27;;;;;;;10.38;9.00;;;24.70;94.90;;;;;;3057798;19;20077;-73
2022/08/15 00:04:28;;;;;;;11.95;9.20;;;24.70;95.00;;;;;;3057843;19;20011;-72
2022/08/15 00:05:34;;;;;;;11.50;9.93;;;24.70;94.90;;;;;;3057858;19;20023;-73
2022/08/15 00:06:40;;;;;;;11.73;9.50;;;24.70;95.10;;;;;;3057833;19;20014;-72
2022/08/15 00:07:47;;;;;;;13.43;9.52;;;24.70;95.20;;;;;;3057738;19;20070;-74
2022/08/15 00:08:51;;;;;;;12.27;9.48;;;24.70;95.20;;;;;;3058105;19;20035;-72
2022/08/15 00:09:55;;;;;;;10.05;8.90;;;24.40;95.30;;;;;;3057639;19;20009;-72
2022/08/15 00:10:58;;;;;;;11.95;9.52;;;24.50;95.40;;;;;;3057594;19;20460;-73
2022/08/15 00:12:02;;;;;;;12.40;9.32;;;24.50;95.60;;;;;;3057681;19;20342;-72
2022/08/15 00:13:11;;;;;;;11.52;9.32;;;24.40;95.60;;;;;;3056985;19;20028;-73
2022/08/15 00:14:18;;;;;;;10.25;9.13;;;24.50;95.80;;;;;;3057697;19;20015;-72
2022/08/15 00:15:20;;;;;;;13.68;9.93;;;24.50;95.90;;;;;;3057981;19;20021;-72
2022/08/15 00:16:24;;;;;;;15.13;9.43;;;24.30;95.90;;;;;;3057761;19;20039;-72
2022/08/15 00:17:26;;;;;;;10.60;9.50;;;24.30;96.00;;;;;;3057789;19;20002;-72
2022/08/15 00:18:31;;;;;;;13.63;9.73;;;24.20;96.00;;;;;;3056853;19;20010;-72
2022/08/15 00:19:32;;;;;;;13.27;10.40;;;24.20;96.10;;;;;;3056902;19;20043;-72
2022/08/15 00:20:38;;;;;;;13.60;9.82;;;24.20;96.20;;;;;;3056859;19;20032;-72
2022/08/15 00:21:44;;;;;;;12.55;9.70;;;24.10;96.20;;;;;;3057651;19;20024;-72
2022/08/15 00:22:52;;;;;;;14.00;10.10;;;24.20;96.40;;;;;;3057564;19;20011;-72
2022/08/15 00:23:55;;;;;;;13.10;10.00;;;24.30;96.60;;;;;;3057509;19;20019;-72
2022/08/15 00:24:59;;;;;;;11.85;10.20;;;24.10;96.50;;;;;;3056977;19;20018;-72
2022/08/15 00:26:02;;;;;;;12.35;9.75;;;24.10;96.50;;;;;;3057095;19;20472;-72
2022/08/15 00:27:08;;;;;;;12.02;10.32;;;23.90;96.60;;;;;;3057361;19;20036;-72
2022/08/15 00:28:09;;;;;;;10.98;9.82;;;24.00;96.70;;;;;;3057551;19;20475;-72
2022/08/15 00:29:14;;;;;;;13.25;10.25;;;23.80;96.70;;;;;;3057625;19;20036;-72
2022/08/15 00:30:15;;;;;;;12.30;10.13;;;24.00;96.80;;;;;;3057648;19;20033;-72
2022/08/15 00:31:19;;;;;;;11.40;10.27;;;24.00;96.90;;;;;;3057525;19;20456;-72
2022/08/15 00:32:26;;;;;;;14.18;10.20;;;24.00;96.90;;;;;;3057715;19;20368;-72
2022/08/15 00:33:28;;;;;;;14.27;10.60;;;23.80;97.20;;;;;;3057415;19;20023;-72
2022/08/15 00:34:32;;;;;;;13.05;10.82;;;23.90;97.00;;;;;;3057475;19;20009;-73
2022/08/15 00:35:36;;;;;;;12.00;10.70;;;23.90;97.00;;;;;;3057464;19;20010;-72
2022/08/15 00:36:41;;;;;;;13.20;10.05;;;24.00;97.00;;;;;;3057516;19;20107;-72
2022/08/15 00:37:42;;;;;;;12.80;10.50;;;23.80;97.00;;;;;;3057379;19;20018;-72
2022/08/15 00:38:48;;;;;;;12.10;10.15;;;24.00;97.30;;;;;;3057498;19;20017;-72
2022/08/15 00:39:49;;;;;;;14.50;10.27;;;24.00;97.20;;;;;;3059225;19;19998;-72
2022/08/15 00:42:14;;;;;;;11.52;10.20;;;24.00;97.20;;;;;;3060587;19;20014;-72
2022/08/15 00:43:15;;;;;;;15.20;11.05;;;24.00;97.20;;;;;;3061273;19;20374;-72
2022/08/15 00:44:23;;;;;;;12.90;10.48;;;23.90;97.10;;;;;;3060715;19;20006;-72
2022/08/15 00:45:24;;;;;;;14.15;10.52;;;23.80;97.10;;;;;;3060362;19;20006;-72
2022/08/15 00:46:30;;;;;;;13.85;10.88;;;23.90;97.00;;;;;;3060446;19;20021;-73
2022/08/15 00:47:31;;;;;;;18.60;11.38;;;24.10;97.10;;;;;;3060393;19;20015;-72
2022/08/15 00:48:44;;;;;;;12.98;11.13;;;23.80;97.00;;;;;;3060396;19;20559;-72
2022/08/15 00:49:47;;;;;;;13.55;10.48;;;24.00;96.90;;;;;;3060368;19;20010;-72
2022/08/15 00:50:50;;;;;;;16.27;10.52;;;23.90;97.10;;;;;;3060333;19;20025;-72
2022/08/15 00:51:55;;;;;;;12.23;10.32;;;23.90;97.00;;;;;;3060152;19;20014;-72
2022/08/15 00:52:59;;;;;;;14.70;10.50;;;24.00;97.40;;;;;;3060438;19;20018;-72
2022/08/15 00:54:08;;;;;;;12.93;11.10;;;24.00;97.10;;;;;;3060079;19;20019;-73
2022/08/15 00:55:15;;;;;;;12.70;10.25;;;23.90;97.20;;;;;;3060185;19;20062;-73
2022/08/15 00:56:17;;;;;;;14.43;10.18;;;24.00;97.20;;;;;;3059866;19;20086;-73
2022/08/15 00:57:24;;;;;;;12.90;10.57;;;23.80;97.20;;;;;;3060196;19;20006;-72
2022/08/15 00:58:26;;;;;;;14.35;10.15;;;23.90;97.30;;;;;;3059366;19;20007;-72
2022/08/15 00:59:33;;;;;;;11.15;9.75;;;23.80;97.30;;;;;;3060281;19;20046;-72
2022/08/15 01:00:38;;;;;;;12.20;10.00;;;23.90;97.50;;;;;;3060118;19;20034;-72
2022/08/15 01:01:42;;;;;;;11.48;10.20;;;23.70;97.60;;;;;;3060318;19;20006;-72
2022/08/15 01:02:44;;;;;;;11.55;9.55;;;23.90;97.60;;;;;;3060137;19;20349;-72
2022/08/15 01:03:49;;;;;;;12.63;10.35;;;23.60;97.70;;;;;;3060098;19;20031;-72
2022/08/15 01:04:51;;;;;;;12.57;10.30;;;23.80;97.80;;;;;;3060004;19;20468;-72
2022/08/15 01:05:58;;;;;;;13.68;10.85;;;23.80;97.80;;;;;;3059891;19;20091;-72
2022/08/15 01:07:00;;;;;;;13.90;10.90;;;23.70;97.80;;;;;;3060018;19;20026;-72
2022/08/15 01:08:04;;;;;;;12.93;11.18;;;23.80;97.80;;;;;;3059961;19;20490;-72
2022/08/15 01:09:12;;;;;;;14.77;11.43;;;23.70;97.80;;;;;;3060265;19;20006;-72
2022/08/15 01:10:14;;;;;;;13.75;11.48;;;23.60;98.00;;;;;;3059786;19;20019;-72
2022/08/15 01:11:24;;;;;;;12.60;11.30;;;23.60;97.90;;;;;;3060092;19;20003;-72
2022/08/15 01:12:26;;;;;;;13.07;11.65;;;23.70;98.00;;;;;;3059860;19;20082;-72
2022/08/15 01:13:31;;;;;;;14.23;11.15;;;23.60;98.00;;;;;;3060029;19;20010;-72
2022/08/15 01:14:35;;;;;;;14.93;11.48;;;23.60;98.00;;;;;;3059874;19;20035;-72
2022/08/15 01:15:37;;;;;;;13.15;10.98;;;23.70;98.20;;;;;;3059943;19;20014;-72
2022/08/15 01:16:42;;;;;;;13.38;11.52;;;23.70;98.20;;;;;;3059764;19;20010;-72
2022/08/15 01:17:44;;;;;;;14.98;12.52;;;23.60;98.30;;;;;;3059974;19;20081;-72
2022/08/15 01:18:48;;;;;;;14.18;12.10;;;23.40;98.20;;;;;;3058771;19;20014;-72
2022/08/15 01:19:53;;;;;;;16.92;12.65;;;23.50;98.30;;;;;;3060017;19;20006;-72
2022/08/15 01:21:00;;;;;;;16.65;13.18;;;23.40;98.30;;;;;;3059743;19;20011;-72
2022/08/15 01:22:31;;;;;;;13.88;12.35;;;23.50;98.30;;;;;;3059914;19;20010;-72
2022/08/15 01:23:42;;;;;;;15.13;12.13;;;23.70;98.40;;;;;;3059537;19;20022;-72
2022/08/15 01:24:57;;;;;;;13.55;12.15;;;23.50;98.60;;;;;;3059129;19;20021;-72
2022/08/15 01:26:04;;;;;;;14.13;12.50;;;23.40;98.40;;;;;;3059504;19;20006;-72
2022/08/15 01:27:09;;;;;;;12.93;11.57;;;23.60;98.40;;;;;;3059863;19;20015;-72
2022/08/15 01:28:14;;;;;;;15.48;12.38;;;23.60;98.40;;;;;;3059844;19;20489;-72
2022/08/15 01:29:20;;;;;;;14.73;12.45;;;23.40;98.40;;;;;;3059718;19;20531;-72
2022/08/15 01:30:32;;;;;;;13.82;11.93;;;23.50;98.50;;;;;;3059998;19;19999;-72
2022/08/15 01:31:36;;;;;;;14.40;11.85;;;23.40;98.60;;;;;;3059764;19;20014;-72
2022/08/15 01:32:37;;;;;;;13.88;11.80;;;23.40;98.60;;;;;;3059884;19;20021;-72
2022/08/15 01:33:47;;;;;;;14.73;12.38;;;23.40;98.60;;;;;;3059724;19;20488;-72
2022/08/15 01:34:49;;;;;;;14.07;12.18;;;23.50;98.80;;;;;;3059553;19;20040;-72
2022/08/15 01:35:55;;;;;;;13.50;11.82;;;23.30;98.70;;;;;;3059662;19;20010;-72
2022/08/15 01:36:56;;;;;;;13.90;11.70;;;23.40;98.80;;;;;;3059661;19;20007;-72
2022/08/15 01:38:01;;;;;;;14.45;11.75;;;23.30;98.70;;;;;;3059599;19;20074;-72
2022/08/15 01:39:09;;;;;;;16.00;12.48;;;23.30;98.80;;;;;;3058448;19;20006;-72
2022/08/15 01:40:26;;;;;;;14.82;11.98;;;23.40;98.80;;;;;;3059679;19;20066;-72
2022/08/15 01:41:33;;;;;;;14.75;11.85;;;23.40;98.80;;;;;;3059605;19;20013;-72
2022/08/15 01:42:42;;;;;;;13.07;11.27;;;23.40;98.80;;;;;;3059556;19;20018;-72
2022/08/15 01:43:50;;;;;;;16.58;12.23;;;23.40;98.80;;;;;;3059689;19;20014;-72
2022/08/15 01:44:59;;;;;;;13.82;12.07;;;23.30;98.90;;;;;;3059778;19;20483;-72
2022/08/15 01:46:06;;;;;;;13.73;12.13;;;23.20;98.90;;;;;;3059441;19;20023;-72
2022/08/15 01:47:20;;;;;;;13.07;11.48;;;23.20;99.00;;;;;;3059487;19;20027;-72
2022/08/15 01:48:27;;;;;;;12.57;11.20;;;23.20;99.10;;;;;;3059365;19;20014;-72
2022/08/15 01:49:36;;;;;;;15.85;12.13;;;23.30;99.10;;;;;;3059355;19;20021;-72
2022/08/15 01:50:43;;;;;;;13.20;11.25;;;23.30;99.10;;;;;;3058750;19;20018;-73
2022/08/15 01:51:47;;;;;;;15.20;11.48;;;23.20;99.20;;;;;;3059626;19;20052;-73
2022/08/15 01:52:53;;;;;;;15.00;11.35;;;25.70;99.80;;;;;;3059495;19;20003;-72
2022/08/15 01:54:04;;;;;;;14.60;12.23;;;23.20;99.20;;;;;;3059446;19;20119;-73
2022/08/15 01:55:07;;;;;;;14.63;11.98;;;23.30;99.20;;;;;;3059479;19;20011;-73
2022/08/15 01:56:19;;;;;;;14.70;11.75;;;23.10;99.10;;;;;;3058754;19;20039;-73
2022/08/15 01:57:21;;;;;;;14.23;11.73;;;23.20;99.30;;;;;;3059502;19;20018;-73
2022/08/15 01:58:26;;;;;;;13.32;11.80;;;23.10;99.30;;;;;;3059173;19;20011;-73
2022/08/15 01:59:27;;;;;;;14.73;11.88;;;23.10;99.40;;;;;;3059409;19;20007;-72
2022/08/15 02:00:31;;;;;;;13.77;12.32;;;23.10;99.30;;;;;;3059364;19;20011;-72
2022/08/15 02:01:40;;;;;;;14.20;12.05;;;23.30;99.40;;;;;;3059419;19;20070;-72
2022/08/15 02:02:44;;;;;;;16.83;12.95;;;23.20;99.50;;;;;;3059305;19;20010;-72
2022/08/15 02:03:48;;;;;;;15.75;12.55;;;23.20;99.70;;;;;;3059284;19;20354;-72
2022/08/15 02:04:52;;;;;;;14.38;12.68;;;23.10;99.50;;;;;;3059282;19;20048;-72
2022/08/15 02:05:54;;;;;;;15.07;12.75;;;23.10;99.50;;;;;;3059285;19;20082;-72
2022/08/15 02:06:59;;;;;;;;;;;22.80;99.40;;;;;;3059994;19;20053;-72
2022/08/15 02:08:00;;;;;;;16.42;13.10;;;23.20;99.70;;;;;;3059385;19;19943;-72
2022/08/15 02:09:05;;;;;;;16.30;13.13;;;23.10;99.60;;;;;;3059216;19;20010;-72
2022/08/15 02:10:10;;;;;;;15.38;13.07;;;23.10;99.60;;;;;;3059216;19;20030;-72
2022/08/15 02:11:19;;;;;;;16.40;13.02;;;23.10;99.50;;;;;;3059032;19;20010;-72
2022/08/15 02:12:27;;;;;;;18.50;14.20;;;23.10;99.60;;;;;;3059194;19;20025;-72
2022/08/15 02:13:28;;;;;;;18.02;13.18;;;23.00;99.50;;;;;;3058043;19;20038;-72
2022/08/15 02:14:33;;;;;;;;;;;23.00;99.60;;;;;;3059629;19;20578;-72
2022/08/15 02:15:34;;;;;;;18.67;13.57;;;23.00;99.70;;;;;;3059123;19;19926;-72
2022/08/15 02:16:38;;;;;;;;;;;22.90;99.90;;;;;;3059951;19;20014;-72
2022/08/15 02:17:41;;;;;;;15.05;12.73;;;23.00;99.80;;;;;;3059313;19;20254;-72
2022/08/15 02:18:45;;;;;;;16.30;13.00;;;22.90;99.70;;;;;;3058819;19;20330;-72
2022/08/15 02:19:50;;;;;;;15.73;12.77;;;22.90;99.80;;;;;;3059091;19;20570;-72
2022/08/15 02:20:54;;;;;;;15.45;13.07;;;22.90;99.80;;;;;;3058921;19;20017;-72
2022/08/15 02:21:55;;;;;;;15.60;12.48;;;22.90;99.70;;;;;;3058998;19;20370;-72
2022/08/15 02:22:59;;;;;;;14.95;13.45;;;22.90;99.70;;;;;;3058813;19;20010;-72
2022/08/15 02:24:02;;;;;;;16.75;12.73;;;22.90;99.70;;;;;;3059111;19;20017;-72
2022/08/15 02:25:08;;;;;;;16.13;13.07;;;23.00;99.80;;;;;;3058339;19;20014;-72
2022/08/15 02:26:09;;;;;;;15.70;12.50;;;22.90;99.60;;;;;;3058596;19;20349;-72
2022/08/15 02:27:17;;;;;;;16.00;13.55;;;22.90;99.70;;;;;;3058840;19;20010;-73
2022/08/15 02:28:18;;;;;;;16.50;12.93;;;22.90;99.90;;;;;;3058951;19;20015;-72
2022/08/15 02:29:23;;;;;;;13.85;12.35;;;23.10;99.80;;;;;;3058819;19;20014;-72
2022/08/15 02:30:27;;;;;;;19.85;13.55;;;22.70;99.80;;;;;;3058978;19;20019;-72
2022/08/15 02:31:32;;;;;;;16.95;12.77;;;22.80;99.80;;;;;;3058996;19;20019;-72
2022/08/15 02:32:36;;;;;;;18.08;13.57;;;22.90;99.90;;;;;;3058986;19;20014;-72
2022/08/15 02:33:41;;;;;;;17.55;13.50;;;22.90;99.90;;;;;;3058985;19;20010;-72
2022/08/15 02:34:46;;;;;;;15.50;13.32;;;23.00;99.90;;;;;;3058961;19;19998;-72
2022/08/15 02:35:51;;;;;;;17.35;13.13;;;22.90;99.90;;;;;;3058856;19;20039;-72
2022/08/15 02:36:53;;;;;;;16.98;13.65;;;22.80;99.90;;;;;;3058868;19;20051;-72
2022/08/15 02:37:58;;;;;;;15.88;12.82;;;22.80;99.90;;;;;;3058720;19;20007;-72
2022/08/15 02:39:02;;;;;;;15.35;13.23;;;22.90;99.90;;;;;;3058380;19;20433;-72
2022/08/15 02:40:09;;;;;;;17.60;12.32;;;22.80;99.90;;;;;;3058774;19;20018;-72
2022/08/15 02:41:12;;;;;;;15.23;12.50;;;22.80;99.80;;;;;;3058849;19;20014;-72
2022/08/15 02:42:19;;;;;;;16.55;12.40;;;22.90;99.90;;;;;;3058711;19;20480;-72
2022/08/15 02:43:21;;;;;;;16.10;12.80;;;22.70;99.90;;;;;;3058795;19;20460;-72
2022/08/15 02:44:25;;;;;;;;;;;22.80;99.90;;;;;;3059332;19;20015;-72
2022/08/15 02:45:28;;;;;;;15.80;12.68;;;22.80;99.90;;;;;;3058682;19;19919;-72
2022/08/15 02:46:32;;;;;;;14.75;12.80;;;22.60;99.90;;;;;;3058495;19;20017;-72
2022/08/15 02:47:34;;;;;;;17.20;13.38;;;22.70;99.90;;;;;;3058662;19;20346;-72
2022/08/15 02:48:38;;;;;;;16.77;13.63;;;22.90;99.90;;;;;;3058450;19;20017;-72
2022/08/15 02:49:40;;;;;;;15.05;12.63;;;22.70;99.90;;;;;;3058714;19;20019;-72
2022/08/15 02:50:45;;;;;;;15.68;12.13;;;23.20;99.90;;;;;;3058490;19;20015;-72
2022/08/15 02:51:47;;;;;;;15.75;12.48;;;22.70;99.90;;;;;;3058689;19;20006;-72
2022/08/15 02:52:51;;;;;;;;;;;22.80;99.90;;;;;;3059243;19;20010;-72
2022/08/15 02:53:54;;;;;;;15.68;13.40;;;22.70;99.90;;;;;;3058584;19;19919;-72
2022/08/15 02:54:59;;;;;;;17.63;14.07;;;22.80;99.90;;;;;;3058597;19;20078;-72
2022/08/15 02:56:00;;;;;;;16.77;13.23;;;22.80;99.90;;;;;;3058198;19;20027;-72
2022/08/15 02:57:05;;;;;;;15.55;13.18;;;22.80;99.90;;;;;;3058476;19;20018;-72
2022/08/15 02:58:09;;;;;;;17.35;13.07;;;22.70;99.90;;;;;;3058757;19;20021;-72
2022/08/15 02:59:14;;;;;;;17.63;13.57;;;22.80;99.90;;;;;;3057996;19;20013;-72
2022/08/15 03:00:16;;;;;;;15.30;13.38;;;22.70;99.90;;;;;;3058645;19;20092;-72
2022/08/15 03:01:22;;;;;;;16.67;13.52;;;22.70;99.90;;;;;;3058356;19;20018;-72
2022/08/15 03:02:23;;;;;;;15.10;13.27;;;22.90;99.90;;;;;;3056727;19;20022;-72
2022/08/15 03:03:28;;;;;;;15.00;13.20;;;22.70;99.90;;;;;;3058546;19;20018;-72
2022/08/15 03:04:34;;;;;;;15.88;13.60;;;22.70;99.90;;;;;;3058392;19;20365;-72
2022/08/15 03:05:41;;;;;;;19.45;14.32;;;22.70;99.90;;;;;;3059008;19;20017;-72
2022/08/15 03:06:44;;;;;;;16.38;14.07;;;22.70;99.90;;;;;;3058640;19;19999;-72
2022/08/15 03:07:48;;;;;;;17.50;14.10;;;22.70;99.90;;;;;;3058267;19;20010;-72
2022/08/15 03:08:49;;;;;;;16.63;13.80;;;22.80;99.90;;;;;;3058292;19;19999;-72
2022/08/15 03:09:53;;;;;;;18.23;14.30;;;22.70;99.90;;;;;;3058473;19;20043;-72
2022/08/15 03:10:55;;;;;;;18.25;13.75;;;22.70;99.90;;;;;;3058093;19;21298;-72
2022/08/15 03:11:59;;;;;;;19.73;14.63;;;22.80;99.90;;;;;;3058384;19;20492;-72
2022/08/15 03:13:04;;;;;;;17.20;13.65;;;22.80;99.90;;;;;;3057700;19;20010;-72
2022/08/15 03:14:13;;;;;;;15.85;13.57;;;22.70;99.90;;;;;;3058587;19;20100;-72
2022/08/15 03:15:15;;;;;;;17.23;13.93;;;22.70;99.90;;;;;;3058277;19;20002;-72
2022/08/15 03:16:19;;;;;;;18.15;14.60;;;22.70;99.90;;;;;;3058593;19;20040;-72
2022/08/15 03:17:20;;;;;;;18.20;15.07;;;22.70;99.90;;;;;;3058278;19;20002;-72
2022/08/15 03:18:25;;;;;;;;;;;22.70;99.90;;;;;;3058921;19;20007;-73
2022/08/15 03:19:29;;;;;;;17.35;15.05;;;22.70;99.90;;;;;;3057621;19;19918;-72
2022/08/15 03:20:31;;;;;;;17.80;14.68;;;22.70;99.90;;;;;;3058299;19;20003;-72
2022/08/15 03:21:35;;;;;;;16.85;14.18;;;22.50;99.90;;;;;;3058286;19;20531;-72
2022/08/15 03:22:41;;;;;;;17.73;14.52;;;22.60;99.90;;;;;;3058376;19;20480;-72
2022/08/15 03:23:48;;;;;;;19.23;14.45;;;22.60;99.90;;;;;;3058165;19;20533;-72
2022/08/15 03:24:50;;;;;;;15.95;14.00;;;22.50;99.90;;;;;;3057837;19;20010;-72
2022/08/15 03:25:59;;;;;;;18.17;14.43;;;22.50;99.90;;;;;;3057741;19;20010;-72
2022/08/15 03:27:00;;;;;;;18.40;14.73;;;22.60;99.90;;;;;;3058259;19;20009;-72
2022/08/15 03:28:04;;;;;;;16.15;14.15;;;22.50;99.90;;;;;;3058273;19;20007;-72
2022/08/15 03:29:08;;;;;;;19.17;14.80;;;22.50;99.90;;;;;;3058097;19;20070;-72
2022/08/15 03:30:16;;;;;;;18.25;15.43;;;22.60;99.90;;;;;;3058197;19;20102;-72
2022/08/15 03:31:18;;;;;;;19.73;15.45;;;22.60;99.90;;;;;;3058328;19;20018;-73
2022/08/15 03:32:22;;;;;;;17.00;14.40;;;22.60;99.90;;;;;;3058049;19;20362;-72
2022/08/15 03:33:23;;;;;;;21.05;14.95;;;22.50;99.90;;;;;;3058224;19;20028;-73
2022/08/15 03:34:27;;;;;;;16.90;13.82;;;22.30;99.90;;;;;;3058191;19;20011;-72
2022/08/15 03:35:32;;;;;;;18.40;14.27;;;22.40;99.90;;;;;;3058247;19;20006;-72
2022/08/15 03:36:36;;;;;;;15.85;13.65;;;22.50;99.90;;;;;;3057981;19;20039;-72
2022/08/15 03:37:40;;;;;;;20.92;14.23;;;22.30;99.90;;;;;;3058104;19;20022;-72
2022/08/15 03:38:44;;;;;;;;;;;22.50;99.90;;;;;;3058935;19;20014;-72
2022/08/15 03:39:46;;;;;;;15.27;13.27;;;22.40;99.90;;;;;;3057197;19;19914;-72
2022/08/15 03:40:53;;;;;;;16.13;13.95;;;22.30;99.90;;;;;;3058197;19;20014;-72
2022/08/15 03:41:58;;;;;;;17.95;14.82;;;22.40;99.90;;;;;;3058235;19;20019;-72
2022/08/15 03:43:01;;;;;;;16.05;13.48;;;22.40;99.90;;;;;;3058190;19;20033;-72
2022/08/15 03:44:06;;;;;;;18.65;13.27;;;22.30;99.90;;;;;;3058181;19;20084;-72
2022/08/15 03:45:11;;;;;;;21.33;14.48;;;22.30;99.90;;;;;;3057922;19;20010;-72
2022/08/15 03:46:20;;;;;;;17.67;13.63;;;22.30;99.90;;;;;;3058036;19;20421;-72
2022/08/15 03:47:21;;;;;;;16.40;13.35;;;22.30;99.90;;;;;;3057851;19;20011;-72
2022/08/15 03:48:29;;;;;;;20.92;15.38;;;22.30;99.90;;;;;;3058173;19;20547;-72
2022/08/15 03:49:30;;;;;;;18.45;14.40;;;22.20;99.90;;;;;;3058024;19;20018;-72
2022/08/15 03:50:34;;;;;;;16.80;14.25;;;22.20;99.90;;;;;;3057921;19;20074;-72
2022/08/15 03:51:36;;;;;;;19.85;14.25;;;22.30;99.90;;;;;;3058111;19;20051;-72
2022/08/15 03:52:51;;;;;;;16.67;13.18;;;22.20;99.90;;;;;;3058269;19;20015;-72
2022/08/15 03:53:58;;;;;;;19.00;14.48;;;22.20;99.90;;;;;;3058025;19;20006;-72
2022/08/15 03:55:01;;;;;;;17.20;13.90;;;22.20;99.90;;;;;;3057913;19;20063;-72
2022/08/15 03:56:08;;;;;;;17.40;14.25;;;22.20;99.90;;;;;;3057526;19;20350;-72
2022/08/15 03:57:09;;;;;;;17.08;13.95;;;22.00;99.90;;;;;;3057941;19;20028;-72
2022/08/15 03:58:13;;;;;;;17.70;14.10;;;22.20;99.90;;;;;;3057942;19;20006;-72
2022/08/15 03:59:15;;;;;;;17.48;14.32;;;22.10;99.90;;;;;;3057522;19;20014;-72
2022/08/15 04:00:25;;;;;;;17.45;14.25;;;22.10;99.90;;;;;;3057885;19;20043;-72
2022/08/15 04:01:29;;;;;;;19.25;15.27;;;22.30;99.90;;;;;;3057730;19;20027;-72
2022/08/15 04:02:35;;;;;;;16.70;13.80;;;22.10;99.90;;;;;;3057984;19;20006;-73
2022/08/15 04:03:36;;;;;;;17.20;14.35;;;22.10;99.90;;;;;;3056964;19;20022;-72
2022/08/15 04:04:40;;;;;;;17.73;14.10;;;22.10;99.90;;;;;;3057179;19;20009;-72
2022/08/15 04:05:49;;;;;;;17.13;13.07;;;22.10;99.90;;;;;;3057646;19;20031;-73
2022/08/15 04:06:53;;;;;;;16.70;13.77;;;22.20;99.90;;;;;;3057922;19;20011;-72
2022/08/15 04:07:55;;;;;;;19.67;14.48;;;22.10;99.90;;;;;;3057600;19;20018;-72
2022/08/15 04:09:00;;;;;;;18.67;14.50;;;22.20;99.90;;;;;;3057703;19;20002;-72
2022/08/15 04:10:03;;;;;;;19.50;14.85;;;22.20;99.90;;;;;;3057668;19;20010;-72
2022/08/15 04:11:09;;;;;;;17.40;14.25;;;22.00;99.90;;;;;;3057592;19;20379;-72
2022/08/15 04:12:10;;;;;;;17.48;14.40;;;22.10;99.90;;;;;;3057955;19;20029;-72
2022/08/15 04:13:15;;;;;;;16.40;14.07;;;22.10;99.90;;;;;;3057045;19;20032;-72
2022/08/15 04:14:16;;;;;;;16.88;14.63;;;22.10;99.90;;;;;;3060900;19;20010;-72
2022/08/15 04:15:23;;;;;;;16.48;14.57;;;21.90;99.90;;;;;;3060813;19;20476;-72
2022/08/15 04:16:27;;;;;;;18.00;14.93;;;22.00;99.90;;;;;;3060674;19;20010;-73
2022/08/15 04:17:28;;;;;;;18.58;13.82;;;21.90;99.90;;;;;;3060733;19;20009;-72
2022/08/15 04:18:32;;;;;;;16.38;14.60;;;22.00;99.90;;;;;;3060794;19;20021;-72
2022/08/15 04:19:33;;;;;;;16.23;14.10;;;22.00;99.90;;;;;;3060258;19;20015;-72
2022/08/15 04:20:37;;;;;;;16.08;14.38;;;22.10;99.90;;;;;;3060747;19;20007;-72
2022/08/15 04:21:40;;;;;;;15.23;13.60;;;21.90;99.90;;;;;;3060763;19;20007;-72
2022/08/15 04:22:47;;;;;;;16.58;13.95;;;22.00;99.90;;;;;;3060925;19;20007;-72
2022/08/15 04:23:51;;;;;;;16.90;13.85;;;22.00;99.90;;;;;;3060698;19;20010;-72
2022/08/15 04:24:52;;;;;;;17.02;14.15;;;21.90;99.90;;;;;;3060027;19;20011;-72
2022/08/15 04:25:56;;;;;;;16.42;14.10;;;22.10;99.90;;;;;;3060129;19;20019;-72
2022/08/15 04:26:57;;;;;;;17.08;14.45;;;21.90;99.90;;;;;;3060674;19;20006;-72
2022/08/15 04:28:03;;;;;;;17.85;13.93;;;22.10;99.90;;;;;;3060539;19;20007;-72
2022/08/15 04:29:04;;;;;;;17.05;14.40;;;22.00;99.90;;;;;;3060680;19;20115;-73
2022/08/15 04:30:11;;;;;;;19.35;14.13;;;22.10;99.90;;;;;;3060408;19;20581;-72
2022/08/15 04:31:21;;;;;;;15.85;14.13;;;22.10;99.90;;;;;;3060885;19;19998;-72
2022/08/15 04:32:26;;;;;;;16.90;13.82;;;22.00;99.90;;;;;;3060701;19;20006;-72
2022/08/15 04:33:32;;;;;;;15.63;13.82;;;22.00;99.90;;;;;;3060626;19;20496;-72
2022/08/15 04:34:33;;;;;;;16.85;14.18;;;22.00;99.90;;;;;;3060420;19;20018;-72
2022/08/15 04:35:37;;;;;;;16.20;13.93;;;21.90;99.90;;;;;;3060792;19;20123;-72
2022/08/15 04:36:38;;;;;;;17.55;14.15;;;21.90;99.90;;;;;;3060391;19;20512;-72
2022/08/15 04:37:42;;;;;;;15.52;13.80;;;22.00;99.90;;;;;;3060765;19;20083;-72
2022/08/15 04:38:45;;;;;;;16.15;13.82;;;22.00;99.90;;;;;;3061472;19;20014;-72
2022/08/15 04:39:50;;;;;;;17.00;13.98;;;21.90;99.90;;;;;;3059862;19;20023;-72
2022/08/15 04:40:54;;;;;;;16.00;13.52;;;22.00;99.90;;;;;;3060399;19;20104;-72
2022/08/15 04:42:01;;;;;;;17.23;13.45;;;22.10;99.90;;;;;;3060677;19;20033;-72
2022/08/15 04:43:03;;;;;;;16.45;13.52;;;21.90;99.90;;;;;;3060529;19;20011;-72
2022/08/15 04:44:09;;;;;;;16.98;14.10;;;22.00;99.90;;;;;;3060427;19;20007;-72
2022/08/15 04:45:10;;;;;;;15.63;13.93;;;21.90;99.90;;;;;;3060307;19;20011;-72
2022/08/15 04:46:18;;;;;;;16.33;13.80;;;21.90;99.90;;;;;;3060437;19;20460;-72
2022/08/15 04:47:19;;;;;;;17.40;13.65;;;21.90;99.90;;;;;;3060455;19;20015;-72
2022/08/15 04:48:25;;;;;;;15.23;13.63;;;21.90;99.90;;;;;;3060555;19;20031;-72
2022/08/15 04:49:26;;;;;;;17.42;14.05;;;22.00;99.90;;;;;;3060107;19;20074;-72
2022/08/15 04:50:30;;;;;;;17.92;13.65;;;22.00;99.90;;;;;;3060221;19;20018;-72
2022/08/15 04:51:37;;;;;;;20.50;14.88;;;21.90;99.90;;;;;;3060100;19;20015;-72
2022/08/15 04:52:46;;;;;;;17.75;14.30;;;21.90;99.90;;;;;;3060501;19;20002;-72
2022/08/15 04:53:50;;;;;;;17.92;13.55;;;21.70;99.90;;;;;;3060317;19;20014;-72
2022/08/15 04:54:52;;;;;;;17.40;13.93;;;21.80;99.90;;;;;;3060260;19;20006;-72
2022/08/15 04:55:57;;;;;;;;;;;21.80;99.90;;;;;;3060582;19;20066;-72
2022/08/15 04:56:58;;;;;;;16.67;13.63;;;21.80;99.90;;;;;;3060239;19;19937;-72
2022/08/15 04:58:02;;;;;;;17.35;14.60;;;21.80;99.90;;;;;;3060191;19;20011;-72
2022/08/15 04:59:03;;;;;;;17.42;15.05;;;21.70;99.90;;;;;;3060222;19;20376;-72
2022/08/15 05:00:10;;;;;;;16.35;13.93;;;21.60;99.90;;;;;;3059336;19;20013;-72
2022/08/15 05:01:18;;;;;;;19.10;14.38;;;21.80;99.90;;;;;;3060033;19;20003;-72
2022/08/15 05:02:24;;;;;;;17.27;14.13;;;21.80;99.90;;;;;;3060204;19;20035;-72
2022/08/15 05:03:29;;;;;;;17.33;14.27;;;21.60;99.90;;;;;;3060449;19;20010;-72
2022/08/15 05:04:31;;;;;;;16.90;13.98;;;21.80;99.90;;;;;;3060384;19;20003;-72
2022/08/15 05:05:38;;;;;;;17.63;14.05;;;21.70;99.90;;;;;;3060087;19;20002;-72
2022/08/15 05:06:40;;;;;;;18.90;15.20;;;21.80;99.90;;;;;;3060157;19;20014;-72
2022/08/15 05:07:44;;;;;;;17.67;15.13;;;21.60;99.90;;;;;;3060160;19;20029;-72
2022/08/15 05:08:46;;;;;;;17.58;15.02;;;21.80;99.90;;;;;;3060207;19;20006;-72
2022/08/15 05:09:50;;;;;;;18.73;14.65;;;21.70;99.90;;;;;;3059909;19;20002;-72
2022/08/15 05:10:55;;;;;;;18.15;15.32;;;21.60;99.90;;;;;;3060167;19;20014;-73
2022/08/15 05:12:00;;;;;;;18.27;15.05;;;21.70;99.90;;;;;;3059826;19;20533;-72
2022/08/15 05:13:09;;;;;;;19.90;14.73;;;21.70;99.90;;;;;;3059497;19;20081;-72
2022/08/15 05:14:13;;;;;;;17.67;15.25;;;21.90;99.90;;;;;;3060007;19;20022;-72
2022/08/15 05:15:17;;;;;;;17.67;14.65;;;21.90;99.90;;;;;;3059986;19;20510;-72
2022/08/15 05:16:23;;;;;;;17.92;14.73;;;21.80;99.90;;;;;;3060061;19;20583;-72
2022/08/15 05:17:25;;;;;;;17.95;15.05;;;21.90;99.90;;;;;;3059869;19;20006;-72
2022/08/15 05:18:30;;;;;;;17.67;14.23;;;21.80;99.90;;;;;;3060148;19;20018;-72
2022/08/15 05:19:31;;;;;;;19.17;15.00;;;21.90;99.90;;;;;;3059916;19;20002;-72
2022/08/15 05:20:35;;;;;;;19.98;15.50;;;22.10;99.90;;;;;;3058666;19;20052;-72
2022/08/15 05:21:37;;;;;;;18.23;14.85;;;22.00;99.90;;;;;;3060090;19;20011;-72
2022/08/15 05:22:57;;;;;;;16.67;14.68;;;22.10;99.90;;;;;;3059815;19;20015;-72
2022/08/15 05:23:58;;;;;;;18.63;15.20;;;22.10;99.90;;;;;;3059785;19;20014;-72
2022/08/15 05:25:02;;;;;;;23.67;14.65;;;22.10;99.90;;;;;;3058315;19;20011;-72
2022/08/15 05:26:06;;;;;;;20.17;14.77;;;22.10;99.90;;;;;;3058878;19;20011;-72
2022/08/15 05:27:09;;;;;;;17.33;14.98;;;21.90;99.90;;;;;;3059758;19;20019;-73
2022/08/15 05:28:13;;;;;;;17.38;14.80;;;22.00;99.90;;;;;;3059798;19;20018;-72
2022/08/15 05:29:16;;;;;;;18.70;14.65;;;22.20;99.90;;;;;;3059866;19;20032;-72
2022/08/15 05:30:19;;;;;;;19.05;15.13;;;22.10;99.90;;;;;;3059970;19;20020;-72